Time;durP1;ratioP1;P1;durP2;ratioP2;P2;SDS_P1;SDS_P2;PMS_P1;PMS_P2;Temp;Humidity;BMP_temperature;BMP_pressure;BME280_temperature;BME280_humidity;BME280_pressure;Samples;Min_cycle;Max_cycle;Signal;HPM_P1;HPM_P2
2022/05/14 00:01:20;;;;;;;15.85;6.30;;;;;;;12.21;83.51;68130.06;5020342;28;20046;-85
2022/05/14 00:03:47;;;;;;;14.57;6.38;;;;;;;12.19;83.68;68133.09;5020693;28;20038;-84
2022/05/14 00:06:15;;;;;;;14.65;5.70;;;;;;;;;;5013678;28;20046;-84
2022/05/14 00:08:41;;;;;;;12.53;6.30;;;;;;;12.09;84.45;68116.41;5033009;28;20084;-84
2022/05/14 00:13:52;;;;;;;11.63;6.35;;;;;;;12.08;83.82;68109.94;5002217;28;20121;-83
2022/05/14 00:16:20;;;;;;;12.65;6.25;;;;;;;12.02;84.00;68108.44;5017172;28;20064;-83
2022/05/14 00:18:46;;;;;;;14.05;6.63;;;;;;;12.04;83.98;68110.72;5009989;28;20045;-83
2022/05/14 00:21:13;;;;;;;14.70;6.68;;;;;;;11.95;84.34;68101.63;5016949;28;20467;-85
2022/05/14 00:23:38;;;;;;;16.65;6.38;;;;;;;;;;5012251;28;20057;-83
2022/05/14 00:26:04;;;;;;;14.07;5.60;;;;;;;11.91;84.61;68096.53;5002246;28;20042;-84
2022/05/14 00:28:30;;;;;;;13.90;6.50;;;;;;;;;;5009885;28;20046;-84
2022/05/14 00:30:55;;;;;;;15.80;6.53;;;;;;;11.81;84.81;68085.72;5009934;28;20105;-83
2022/05/14 00:33:22;;;;;;;11.70;6.05;;;;;;;11.79;84.63;68083.44;5015189;28;20124;-85
2022/05/14 00:35:47;;;;;;;15.98;6.65;;;;;;;11.79;84.89;68082.88;5016047;28;20418;-85
2022/05/14 00:38:13;;;;;;;13.25;6.25;;;;;;;11.79;84.44;68083.44;5015904;28;20038;-83
2022/05/14 00:40:44;;;;;;;13.75;6.07;;;;;;;11.72;84.87;68080.81;5009006;28;20058;-85
2022/05/14 00:43:10;;;;;;;12.18;6.28;;;;;;;11.75;84.44;68081.56;5003156;28;20462;-86
2022/05/14 00:45:38;;;;;;;13.80;6.20;;;;;;;;;;5021173;28;20124;-83
2022/05/14 00:48:06;;;;;;;12.38;5.55;;;;;;;11.67;84.90;68069.81;5007460;28;20045;-87
2022/05/14 00:50:37;;;;;;;11.93;5.90;;;;;;;11.66;84.79;68068.69;4993779;28;20065;-85
2022/05/14 00:53:20;;;;;;;13.55;6.30;;;;;;;11.65;84.73;68068.13;4993911;28;20073;-84
2022/05/14 00:55:49;;;;;;;15.13;6.32;;;;;;;11.65;84.81;68070.19;4992911;28;20062;-84
2022/05/14 00:58:20;;;;;;;11.50;6.03;;;;;;;;;;5005545;28;20042;-87
2022/05/14 01:00:46;;;;;;;18.52;6.53;;;;;;;11.61;85.16;68063.00;5001804;28;20038;-86
2022/05/14 01:03:11;;;;;;;12.98;6.40;;;;;;;11.59;85.36;68055.94;5011894;28;20048;-83
2022/05/14 01:05:37;;;;;;;16.27;6.95;;;;;;;11.60;85.27;68062.44;5011117;28;20042;-85
2022/05/14 01:08:03;;;;;;;13.98;6.63;;;;;;;11.62;85.45;68069.47;5000243;28;20459;-83
2022/05/14 01:10:36;;;;;;;16.17;6.63;;;;;;;11.65;85.02;68067.53;5006902;28;20723;-84
2022/05/14 01:13:02;;;;;;;13.80;5.93;;;;;;;;;;4997118;28;20042;-85
2022/05/14 01:15:51;;;;;;;15.30;6.50;;;;;;;11.60;85.30;68065.09;5004578;28;20064;-84
2022/05/14 01:18:19;;;;;;;15.15;6.57;;;;;;;11.60;84.52;68067.19;4996382;28;20039;-84
2022/05/14 01:20:52;;;;;;;14.45;5.82;;;;;;;11.60;85.05;68061.88;5001667;28;20504;-85
2022/05/14 01:26:40;;;;;;;10.65;5.22;;;;;;;11.58;84.57;68067.59;5017102;28;20077;-83
2022/05/14 01:29:09;;;;;;;14.23;5.82;;;;;;;11.63;84.34;68065.28;5011758;28;20053;-86
2022/05/14 01:31:36;;;;;;;15.30;5.63;;;;;;;11.64;83.86;68066.41;5014711;28;20034;-84
2022/05/14 01:34:08;;;;;;;10.32;5.18;;;;;;;11.60;84.20;68064.53;5015809;28;20071;-86
2022/05/14 01:36:34;;;;;;;13.23;5.35;;;;;;;11.63;83.83;68070.59;5011787;28;20057;-83
2022/05/14 01:39:00;;;;;;;13.07;5.72;;;;;;;11.61;83.85;68063.00;5021898;28;20025;-85
2022/05/14 01:41:25;;;;;;;13.98;5.30;;;;;;;11.63;83.46;68065.28;5024755;28;20077;-84
2022/05/14 01:43:51;;;;;;;13.85;5.50;;;;;;;11.66;83.16;68069.25;5009634;28;20038;-83
2022/05/14 01:46:17;;;;;;;9.68;5.05;;;;;;;11.58;83.54;68060.16;5010038;28;20068;-86
2022/05/14 01:48:43;;;;;;;14.93;4.80;;;;;;;11.63;83.05;68065.84;4993286;28;20038;-85
2022/05/14 01:51:08;;;;;;;11.75;5.15;;;;;;;;;;4992301;28;20042;-86
2022/05/14 01:53:34;;;;;;;14.85;5.25;;;;;;;11.63;83.23;68065.28;4993497;28;20062;-83
2022/05/14 01:55:59;;;;;;;13.13;5.53;;;;;;;11.65;82.83;68070.78;4997267;28;20547;-83
2022/05/14 01:58:37;;;;;;;13.25;5.45;;;;;;;11.67;83.26;68069.81;5010214;28;20038;-84
2022/05/14 02:01:21;;;;;;;11.27;4.72;;;;;;;11.70;82.63;68073.78;4995120;28;20053;-85
2022/05/14 02:03:49;;;;;;;9.07;4.88;;;;;;;11.70;82.78;68075.88;5007212;28;20068;-83
2022/05/14 02:06:15;;;;;;;12.17;5.60;;;;;;;11.67;82.93;68069.81;4996955;28;20042;-83
2022/05/14 02:08:41;;;;;;;15.38;5.47;;;;;;;11.67;83.12;68065.03;4993738;28;20066;-85
2022/05/14 02:11:08;;;;;;;11.70;5.32;;;;;;;11.69;82.96;68074.75;5011213;28;20042;-82
2022/05/14 02:13:33;;;;;;;11.23;4.78;;;;;;;;;;5015138;28;20049;-85
2022/05/14 02:15:59;;;;;;;12.13;4.60;;;;;;;11.70;83.23;68075.88;5011584;28;20069;-83
2022/05/14 02:18:24;;;;;;;12.95;5.63;;;;;;;11.73;82.74;68081.97;5005823;28;20086;-83
2022/05/14 02:20:50;;;;;;;14.50;5.93;;;;;;;11.77;82.92;68086.50;5006526;28;20433;-84
2022/05/14 02:23:16;;;;;;;11.18;5.07;;;;;;;11.75;83.02;68078.91;4999103;28;20130;-83
2022/05/14 02:25:42;;;;;;;11.68;5.10;;;;;;;11.74;82.60;68078.34;4995668;28;20451;-85
2022/05/14 02:28:07;;;;;;;13.27;6.03;;;;;;;;;;5000752;28;20047;-87
2022/05/14 02:30:33;;;;;;;12.85;5.95;;;;;;;11.75;83.23;68078.91;5024926;28;20057;-84
2022/05/14 02:32:58;;;;;;;11.40;4.63;;;;;;;11.70;83.47;68073.22;5030708;28;20091;-85
2022/05/14 02:35:24;;;;;;;13.82;5.22;;;;;;;11.70;83.25;68073.22;5048569;28;20052;-88
2022/05/14 02:37:50;;;;;;;12.75;5.13;;;;;;;;;;5032460;28;20053;-84
2022/05/14 02:40:16;;;;;;;11.98;5.28;;;;;;;11.69;83.19;68074.75;5033460;28;20045;-87
2022/05/14 02:42:41;;;;;;;16.52;4.80;;;;;;;;;;5017599;28;20051;-84
2022/05/14 02:45:07;;;;;;;10.57;5.30;;;;;;;11.61;84.01;68063.56;4995492;28;20050;-86
2022/05/14 02:47:32;;;;;;;10.88;4.88;;;;;;;11.58;84.13;68059.59;4992814;28;20389;-87
2022/05/14 02:49:58;;;;;;;11.60;5.30;;;;;;;11.61;83.82;68058.22;5012997;28;20042;-82
2022/05/14 02:52:23;;;;;;;13.63;5.30;;;;;;;11.52;84.38;68056.56;5014043;28;20511;-83
2022/05/14 02:54:50;;;;;;;12.93;5.35;;;;;;;11.45;84.71;68051.31;5008087;28;20044;-85
2022/05/14 02:57:16;;;;;;;8.38;4.47;;;;;;;11.44;84.67;68044.81;4994422;28;20038;-84
2022/05/14 02:59:41;;;;;;;19.35;5.30;;;;;;;11.42;84.58;68045.22;5011851;28;20042;-84
2022/05/14 03:02:07;;;;;;;12.43;5.88;;;;;;;;;;5012588;28;20106;-86
2022/05/14 03:04:37;;;;;;;15.57;5.63;;;;;;;11.35;84.93;68034.59;4997740;28;20049;-85
2022/05/14 03:07:08;;;;;;;12.82;5.40;;;;;;;11.28;85.26;68027.22;4995211;28;20245;-89
2022/05/14 03:09:36;;;;;;;10.82;5.22;;;;;;;11.25;85.42;68023.25;4994835;28;20042;-85
2022/05/14 03:12:01;;;;;;;11.52;4.45;;;;;;;;;;4996495;28;20043;-87
2022/05/14 03:14:26;;;;;;;13.57;5.00;;;;;;;11.19;85.44;68017.00;5017066;28;20053;-84
2022/05/14 03:16:52;;;;;;;10.45;5.03;;;;;;;11.19;85.32;68019.69;5024157;28;20395;-84
2022/05/14 03:19:17;;;;;;;14.05;4.65;;;;;;;11.17;85.37;68014.75;5000362;28;20042;-84
2022/05/14 03:21:43;;;;;;;10.00;5.13;;;;;;;;;;5012267;28;20041;-84
2022/05/14 03:24:10;;;;;;;10.48;4.80;;;;;;;11.07;85.97;68003.94;5021536;28;20060;-86
2022/05/14 03:26:36;;;;;;;8.30;5.18;;;;;;;;;;5013439;28;20054;-86
2022/05/14 03:29:02;;;;;;;13.65;5.15;;;;;;;11.04;86.06;67999.97;5023966;28;20241;-85
2022/05/14 03:31:28;;;;;;;11.82;5.00;;;;;;;11.04;85.78;68000.53;5012662;28;20100;-85
2022/05/14 03:33:53;;;;;;;13.18;5.38;;;;;;;11.04;85.93;67999.97;5028928;28;20522;-85
2022/05/14 03:36:18;;;;;;;17.52;5.47;;;;;;;11.04;86.07;68000.53;5029148;28;20046;-84
2022/05/14 03:38:44;;;;;;;13.57;5.32;;;;;;;11.01;85.97;67997.13;5039216;28;20022;-85
2022/05/14 03:41:09;;;;;;;14.80;5.80;;;;;;;10.97;86.02;67992.59;5042466;28;20034;-85
2022/05/14 03:43:37;;;;;;;11.85;5.35;;;;;;;10.93;86.19;67992.81;5019069;28;20054;-85
2022/05/14 03:46:02;;;;;;;13.52;6.57;;;;;;;10.96;86.08;67993.56;5045892;28;20048;-85
2022/05/14 03:48:28;;;;;;;13.23;6.00;;;;;;;10.84;86.59;67980.50;5028734;28;20057;-86
2022/05/14 03:50:53;;;;;;;14.50;5.78;;;;;;;10.83;86.82;67979.94;5036331;28;20042;-85
2022/05/14 03:53:19;;;;;;;14.40;5.45;;;;;;;10.82;86.91;67980.91;5028019;28;20586;-85
2022/05/14 03:55:44;;;;;;;12.68;5.57;;;;;;;10.85;86.92;67986.97;5027294;28;20034;-86
2022/05/14 03:58:11;;;;;;;12.02;5.22;;;;;;;10.91;86.46;67985.78;5025313;28;20042;-86
2022/05/14 04:00:36;;;;;;;15.95;5.85;;;;;;;10.87;86.61;67983.91;5027902;28;20037;-86
2022/05/14 04:03:02;;;;;;;12.60;6.13;;;;;;;10.90;87.15;67989.41;5023534;28;20420;-86
2022/05/14 04:05:27;;;;;;;11.27;5.35;;;;;;;;;;5015766;28;20054;-86
2022/05/14 04:07:53;;;;;;;13.73;6.60;;;;;;;10.89;87.09;67982.94;5016710;28;20048;-86
2022/05/14 04:10:19;;;;;;;12.05;5.88;;;;;;;10.91;86.68;67985.78;5009834;28;20046;-87
2022/05/14 04:12:44;;;;;;;13.57;5.85;;;;;;;10.87;87.25;67983.91;4998128;28;20110;-85
2022/05/14 04:15:12;;;;;;;12.13;5.30;;;;;;;10.92;87.01;67986.34;5013216;28;20265;-85
2022/05/14 04:17:37;;;;;;;12.23;5.40;;;;;;;10.86;87.25;67979.53;5017706;28;20450;-86
2022/05/14 04:20:04;;;;;;;14.38;5.70;;;;;;;10.86;87.28;67982.22;5014984;28;20038;-86
2022/05/14 04:22:31;;;;;;;12.52;6.32;;;;;;;10.88;87.05;67982.38;4991761;28;20047;-86
2022/05/14 04:24:56;;;;;;;14.95;6.15;;;;;;;10.87;87.12;67983.91;4989847;28;20133;-86
2022/05/14 04:27:21;;;;;;;10.70;5.43;;;;;;;10.84;87.79;67977.84;4995623;28;20066;-87
2022/05/14 04:29:47;;;;;;;13.98;6.00;;;;;;;10.89;87.71;67983.50;4998654;28;20138;-86
2022/05/14 04:32:12;;;;;;;12.50;6.70;;;;;;;;;;4999207;28;20121;-86
2022/05/14 04:34:37;;;;;;;15.30;6.28;;;;;;;10.90;87.71;67989.41;5021518;28;20495;-85
2022/05/14 04:37:03;;;;;;;11.38;6.25;;;;;;;10.88;87.77;67982.38;5052086;28;20033;-85
2022/05/14 04:39:34;;;;;;;19.60;7.25;;;;;;;;;;5040186;28;20046;-85
2022/05/14 04:42:01;;;;;;;19.88;7.95;;;;;;;10.84;88.50;67977.84;5056837;28;20052;-85
2022/05/14 04:44:28;;;;;;;15.02;6.68;;;;;;;10.85;88.54;67978.97;5046657;28;20042;-87
2022/05/14 04:46:54;;;;;;;13.00;7.30;;;;;;;10.89;88.25;67988.84;5030052;28;20053;-86
2022/05/14 04:49:19;;;;;;;14.65;6.65;;;;;;;10.92;87.93;67992.25;5015910;28;20061;-86
2022/05/14 04:51:45;;;;;;;11.35;6.97;;;;;;;10.93;87.93;67990.16;5007085;28;20070;-87
2022/05/14 04:54:11;;;;;;;17.67;7.75;;;;;;;10.96;88.09;67994.13;5003276;28;20083;-86
2022/05/14 04:56:37;;;;;;;12.07;8.00;;;;;;;10.99;87.78;67994.88;4997697;28;20092;-85
2022/05/14 04:59:03;;;;;;;17.58;7.78;;;;;;;10.97;88.22;67995.25;5000995;28;20039;-85
2022/05/14 05:01:28;;;;;;;14.35;7.70;;;;;;;11.01;88.30;67999.78;5003376;28;20055;-85
2022/05/14 05:03:54;;;;;;;14.05;7.35;;;;;;;11.05;87.98;68001.13;5001841;28;20045;-85
2022/05/14 05:06:23;;;;;;;18.08;7.63;;;;;;;;;;5001761;28;20045;-85
2022/05/14 05:08:51;;;;;;;16.73;7.10;;;;;;;11.07;88.13;68003.94;5003927;28;20038;-85
2022/05/14 05:11:18;;;;;;;12.02;7.65;;;;;;;11.09;87.78;68008.31;5014903;28;20042;-85
2022/05/14 05:13:44;;;;;;;14.68;7.75;;;;;;;11.12;87.68;68008.50;5018983;28;20081;-83
2022/05/14 05:16:09;;;;;;;14.48;7.63;;;;;;;11.10;88.20;68011.53;5021196;28;20050;-85
2022/05/14 05:18:35;;;;;;;15.25;7.88;;;;;;;11.13;87.68;68009.63;5022127;28;20157;-85
2022/05/14 05:21:00;;;;;;;15.57;7.47;;;;;;;11.12;87.95;68008.50;5020743;28;20038;-85
2022/05/14 05:23:26;;;;;;;11.60;7.25;;;;;;;;;;5028680;28;20035;-85
2022/05/14 05:25:51;;;;;;;15.90;7.60;;;;;;;11.19;87.45;68019.69;5013489;28;20046;-84
2022/05/14 05:28:17;;;;;;;18.48;7.53;;;;;;;11.17;87.37;68014.16;5034997;28;20044;-85
2022/05/14 05:30:43;;;;;;;14.68;7.78;;;;;;;11.21;87.34;68024.03;5021027;28;20049;-85
2022/05/14 05:33:12;;;;;;;10.88;7.13;;;;;;;11.22;87.88;68019.84;5050333;28;20038;-86
2022/05/14 05:35:37;;;;;;;13.88;8.32;;;;;;;11.34;87.39;68035.56;5057655;28;20045;-84
2022/05/14 05:38:03;;;;;;;18.33;8.70;;;;;;;11.36;87.49;68035.72;5035018;28;20045;-85
2022/05/14 05:40:28;;;;;;;14.73;7.97;;;;;;;;;;5005487;28;20043;-87
2022/05/14 05:42:59;;;;;;;15.63;8.15;;;;;;;11.44;86.57;68044.81;5010880;28;20050;-86
2022/05/14 05:45:25;;;;;;;15.35;8.52;;;;;;;11.56;86.48;68057.31;5013147;28;20040;-86
2022/05/14 05:47:50;;;;;;;16.70;7.88;;;;;;;11.63;86.49;68065.28;5007726;28;20105;-86
2022/05/14 05:50:16;;;;;;;14.00;7.95;;;;;;;11.61;86.27;68063.00;5000362;28;20061;-86
2022/05/14 05:52:41;;;;;;;15.93;7.05;;;;;;;11.61;86.04;68063.00;5002522;28;20052;-87
2022/05/14 05:57:52;;;;;;;15.30;8.23;;;;;;;11.72;86.27;68075.50;5011770;28;20168;-85
2022/05/14 06:00:21;;;;;;;14.25;8.23;;;;;;;11.86;85.80;68093.53;4998159;28;20491;-85
2022/05/14 06:02:47;;;;;;;15.50;8.43;;;;;;;11.87;85.83;68091.97;4991367;28;20031;-85
2022/05/14 06:05:14;;;;;;;16.45;8.57;;;;;;;11.99;86.24;68110.94;4992903;28;20037;-85
2022/05/14 06:07:39;;;;;;;15.82;8.32;;;;;;;11.92;85.25;68098.22;5003692;28;20105;-86
2022/05/14 06:10:09;;;;;;;16.95;8.63;;;;;;;12.02;85.29;68108.44;4997866;28;20108;-86
2022/05/14 06:12:38;;;;;;;15.13;8.15;;;;;;;12.08;85.19;68115.28;5003307;28;20108;-86
2022/05/14 06:15:05;;;;;;;16.48;8.55;;;;;;;12.16;85.28;68124.38;5008170;28;20068;-86
2022/05/14 06:17:30;;;;;;;16.23;8.57;;;;;;;12.25;85.72;68137.25;4988823;28;20035;-86
2022/05/14 06:19:56;;;;;;;16.25;8.52;;;;;;;12.30;85.19;68142.38;5001134;28;20050;-86
2022/05/14 06:22:21;;;;;;;17.00;7.68;;;;;;;;;;4999897;28;20053;-86
2022/05/14 06:24:46;;;;;;;19.27;9.10;;;;;;;12.22;85.70;68131.19;5002520;28;20100;-84
2022/05/14 06:27:12;;;;;;;15.82;9.30;;;;;;;12.31;85.83;68144.06;5006584;28;20046;-84
2022/05/14 06:29:37;;;;;;;18.27;9.55;;;;;;;12.36;84.90;68147.09;5009805;28;20041;-85
2022/05/14 06:32:03;;;;;;;23.48;10.10;;;;;;;12.45;85.39;68156.75;5009937;28;20057;-85
2022/05/14 06:34:28;;;;;;;22.92;10.15;;;;;;;12.60;85.84;68173.22;5001721;28;20393;-85
2022/05/14 06:36:54;;;;;;;20.77;8.48;;;;;;;12.68;85.25;68181.75;5006000;28;20040;-86
2022/05/14 06:39:19;;;;;;;17.80;8.82;;;;;;;;;;5005997;28;21798;-87
2022/05/14 06:41:45;;;;;;;17.15;9.48;;;;;;;12.68;85.10;68182.31;5005092;28;20042;-86
2022/05/14 06:44:10;;;;;;;18.73;10.02;;;;;;;12.74;85.18;68183.81;5008532;28;20340;-86
2022/05/14 06:46:36;;;;;;;16.15;9.82;;;;;;;12.78;85.07;68199.03;5010411;28;20044;-86
2022/05/14 06:49:02;;;;;;;18.13;10.27;;;;;;;;;;5009032;28;20453;-86
2022/05/14 06:51:29;;;;;;;23.25;9.65;;;;;;;12.85;85.63;68201.09;5010944;28;20046;-86
2022/05/14 06:54:00;;;;;;;21.50;9.57;;;;;;;12.98;84.79;68217.97;5008225;28;20038;-86
2022/05/14 06:56:27;;;;;;;24.27;10.23;;;;;;;13.00;84.34;68222.91;5008214;28;20034;-87
2022/05/14 06:58:54;;;;;;;25.15;10.93;;;;;;;13.01;84.87;68219.28;5008691;28;20086;-86
2022/05/14 07:01:20;;;;;;;23.85;9.98;;;;;;;13.06;85.01;68227.06;5014927;28;20082;-86
2022/05/14 07:06:40;;;;;;;19.63;10.63;;;;;;;13.15;85.20;68234.63;5023993;28;20315;-86
2022/05/14 07:09:19;;;;;;;21.65;9.23;;;;;;;13.24;83.98;68244.88;5002008;28;20045;-87
2022/05/14 07:11:47;;;;;;;23.88;9.27;;;;;;;13.28;83.84;68252.09;4999109;28;20081;-86
2022/05/14 07:14:16;;;;;;;18.23;9.82;;;;;;;13.21;84.33;68241.47;5005382;28;20062;-87
2022/05/14 07:16:42;;;;;;;25.67;10.65;;;;;;;13.39;84.83;68261.38;5009478;28;20038;-86
2022/05/14 07:19:08;;;;;;;20.63;10.27;;;;;;;13.54;84.34;68280.53;4998255;28;20076;-87
2022/05/14 07:21:34;;;;;;;17.70;10.30;;;;;;;;;;5003646;28;20526;-88
2022/05/14 07:23:59;;;;;;;19.25;9.98;;;;;;;13.37;83.58;68261.22;5003329;28;20046;-87
2022/05/14 07:26:27;;;;;;;30.15;11.88;;;;;;;13.36;84.13;68257.41;5003601;28;20088;-89
2022/05/14 07:28:52;;;;;;;23.10;11.02;;;;;;;13.45;84.74;68267.63;5014437;28;20038;-86
2022/05/14 07:31:18;;;;;;;19.40;10.68;;;;;;;13.56;83.58;68280.16;5008406;28;20100;-86
2022/05/14 07:33:43;;;;;;;18.15;10.10;;;;;;;13.65;83.40;68289.81;5000801;28;20129;-85
2022/05/14 07:36:17;;;;;;;23.15;10.07;;;;;;;13.81;83.73;68307.44;5002903;28;20038;-87
2022/05/14 07:38:43;;;;;;;19.33;10.02;;;;;;;13.75;82.85;68301.78;5020698;28;20042;-88
2022/05/14 07:41:11;;;;;;;21.20;10.23;;;;;;;13.80;82.55;68306.31;5019265;28;20042;-87
2022/05/14 07:43:38;;;;;;;22.25;11.05;;;;;;;13.94;82.78;68322.81;5019177;28;20029;-90
2022/05/14 07:46:10;;;;;;;22.35;10.10;;;;;;;14.07;82.58;68336.47;5018898;28;20112;-87
2022/05/14 07:48:38;;;;;;;28.33;10.93;;;;;;;14.26;82.18;68358.09;5032790;28;20038;-86
2022/05/14 07:51:05;;;;;;;24.58;10.65;;;;;;;14.33;81.74;68365.50;5013868;28;20046;-88
2022/05/14 07:53:31;;;;;;;30.88;10.77;;;;;;;;;;5016505;28;20050;-86
2022/05/14 07:56:00;;;;;;;25.23;9.65;;;;;;;;;;5006107;28;20065;-88
2022/05/14 07:58:26;;;;;;;20.10;9.90;;;;;;;14.60;80.46;68396.25;5007769;28;20050;-86
2022/05/14 08:00:51;;;;;;;21.35;9.77;;;;;;;14.62;80.15;68392.59;5016184;28;20037;-87
2022/05/14 08:03:17;;;;;;;22.60;10.43;;;;;;;14.60;79.95;68390.88;5022196;28;20034;-88
2022/05/14 08:05:42;;;;;;;17.17;9.23;;;;;;;14.63;79.97;68399.66;5018434;28;20044;-87
2022/05/14 08:08:08;;;;;;;19.30;9.30;;;;;;;;;;5021482;28;20045;-89
2022/05/14 08:10:34;;;;;;;24.57;10.23;;;;;;;;;;5044032;28;20050;-89
2022/05/14 08:12:59;;;;;;;21.92;9.35;;;;;;;14.87;78.79;68425.84;5010027;28;20329;-87
2022/05/14 08:15:27;;;;;;;19.17;10.18;;;;;;;14.88;79.47;68427.56;5007366;28;20084;-87
2022/05/14 08:17:52;;;;;;;24.40;9.23;;;;;;;;;;5026821;28;20044;-87
2022/05/14 08:20:18;;;;;;;21.92;9.98;;;;;;;;;;5010187;28;20101;-87
2022/05/14 08:25:28;;;;;;;25.05;8.80;;;;;;;;;;5038029;28;20045;-89
2022/05/14 08:27:54;;;;;;;21.08;9.32;;;;;;;15.54;75.44;68500.47;5023735;28;20038;-88
2022/05/14 08:30:22;;;;;;;17.95;8.60;;;;;;;;;;5021840;28;20050;-89
2022/05/14 08:32:47;;;;;;;21.83;9.52;;;;;;;15.66;75.59;68508.78;5005243;28;20057;-87
2022/05/14 08:35:13;;;;;;;24.25;9.13;;;;;;;15.92;75.28;68535.16;5012967;28;20097;-86
2022/05/14 08:37:40;;;;;;;39.95;10.35;;;;;;;16.06;73.84;68550.00;5022402;28;20102;-89
2022/05/14 08:40:13;;;;;;;22.08;7.10;;;;;;;16.27;70.98;68576.03;5013943;28;20475;-88
2022/05/14 08:42:39;;;;;;;20.55;7.53;;;;;;;16.28;69.34;68583.09;5016240;28;20057;-90
2022/05/14 08:45:05;;;;;;;26.83;8.23;;;;;;;;;;5014660;28;20030;-89
2022/05/14 08:47:40;;;;;;;21.30;8.82;;;;;;;16.38;69.29;68593.94;5034729;28;20054;-89
2022/05/14 08:50:07;;;;;;;22.83;7.68;;;;;;;;;;5025190;28;20053;-88
2022/05/14 08:52:35;;;;;;;21.08;6.80;;;;;;;16.60;68.50;68619.03;5017338;28;20594;-87
2022/05/14 08:55:04;;;;;;;19.85;6.38;;;;;;;;;;5021386;28;20458;-87
2022/05/14 08:57:42;;;;;;;19.65;5.85;;;;;;;16.76;65.20;68631.34;5028978;28;20042;-87
2022/05/14 09:00:09;;;;;;;23.77;7.47;;;;;;;16.58;65.82;68611.38;5012782;28;20033;-85
2022/05/14 09:02:41;;;;;;;22.98;6.80;;;;;;;16.59;66.87;68617.88;5015515;28;20049;-85
2022/05/14 09:05:20;;;;;;;17.92;7.28;;;;;;;16.76;67.27;68631.34;5013879;28;20151;-88
2022/05/14 09:07:46;;;;;;;;;;;;;;;16.86;65.65;68647.56;5012150;28;20034;-86
2022/05/14 09:10:26;;;;;;;20.50;5.95;;;;;;;;;;5015822;28;20409;-85
2022/05/14 09:13:12;;;;;;;35.90;6.93;;;;;;;;;;5029604;28;20465;-85
2022/05/14 09:15:50;;;;;;;23.15;7.30;;;;;;;17.28;66.01;68694.88;4990627;28;20117;-86
2022/05/14 09:18:20;;;;;;;17.63;6.90;;;;;;;;;;5006567;28;20578;-88
2022/05/14 09:20:50;;;;;;;23.52;6.82;;;;;;;17.56;65.47;68726.28;5010972;28;20329;-87
2022/05/14 09:23:49;;;;;;;17.02;5.75;;;;;;;17.70;62.57;68733.59;4995968;28;20057;-88
2022/05/14 09:26:21;;;;;;;20.77;7.57;;;;;;;;;;5009788;28;20042;-86
2022/05/14 09:28:49;;;;;;;17.10;5.40;;;;;;;;;;5015270;28;20189;-86
2022/05/14 09:31:28;;;;;;;15.88;5.88;;;;;;;17.56;62.60;68718.19;5013837;28;20045;-86
2022/05/14 09:34:11;;;;;;;16.02;5.35;;;;;;;;;;5017756;28;20522;-85
2022/05/14 09:36:37;;;;;;;19.50;6.22;;;;;;;;;;5015592;28;20041;-86
2022/05/14 09:39:09;;;;;;;18.58;6.45;;;;;;;17.77;62.57;68749.66;5015910;28;20038;-86
2022/05/14 09:41:52;;;;;;;18.65;7.38;;;;;;;17.60;62.15;68724.88;5017569;28;20543;-86
2022/05/14 09:44:27;;;;;;;15.07;5.30;;;;;;;;;;5020295;28;20439;-87
2022/05/14 09:47:04;;;;;;;23.80;6.03;;;;;;;;;;5006857;28;20058;-86
2022/05/14 09:49:29;;;;;;;15.88;5.40;;;;;;;18.12;60.36;68788.50;5012427;28;20547;-86
2022/05/14 09:51:56;;;;;;;13.15;5.55;;;;;;;;;;5005285;28;20049;-87
2022/05/14 09:54:42;;;;;;;16.13;6.00;;;;;;;18.02;59.66;68777.09;5014912;28;20048;-87
2022/05/14 09:57:28;;;;;;;87.70;14.93;;;;;;;18.30;59.87;68802.50;5017221;28;20096;-86
2022/05/14 10:00:02;;;;;;;20.27;7.18;;;;;;;18.35;59.28;68808.22;5017656;28;20505;-87
2022/05/14 10:02:49;;;;;;;19.95;6.60;;;;;;;18.33;60.07;68806.53;5004401;28;20062;-87
2022/05/14 10:05:23;;;;;;;13.63;6.00;;;;;;;;;;5016038;28;20491;-87
2022/05/14 10:08:07;;;;;;;20.13;6.50;;;;;;;18.38;58.57;68812.22;5010744;28;20209;-86
2022/05/14 10:10:55;;;;;;;18.35;4.80;;;;;;;18.33;58.86;68811.91;5012011;28;20056;-86
2022/05/14 10:13:20;;;;;;;19.70;5.32;;;;;;;18.55;58.24;68830.50;5002244;28;20058;-87
2022/05/14 10:15:55;;;;;;;16.92;5.65;;;;;;;18.69;58.15;68852.44;4995846;28;20058;-86
2022/05/14 10:18:49;;;;;;;16.45;5.18;;;;;;;18.77;56.44;68855.06;5000722;28;20045;-86
2022/05/14 10:21:52;;;;;;;16.08;4.65;;;;;;;18.81;57.70;68860.19;5008377;28;20045;-88
2022/05/14 10:27:26;;;;;;;18.95;6.57;;;;;;;18.86;56.81;68865.34;5004484;28;20104;-87
2022/05/14 10:30:08;;;;;;;15.27;6.53;;;;;;;18.58;56.58;68834.47;4998125;28;20049;-85
2022/05/14 10:32:34;;;;;;;17.52;5.32;;;;;;;18.77;56.62;68855.63;5009123;28;20045;-85
2022/05/14 10:35:21;;;;;;;16.52;5.47;;;;;;;18.86;57.72;68865.34;5006404;28;20123;-85
2022/05/14 10:37:55;;;;;;;14.75;5.93;;;;;;;19.04;56.44;68885.91;5014608;28;20053;-86
2022/05/14 10:40:21;;;;;;;14.77;5.60;;;;;;;;;;5016174;28;20570;-86
2022/05/14 10:42:52;;;;;;;13.52;5.40;;;;;;;;;;5017632;28;20042;-86
2022/05/14 10:45:22;;;;;;;15.98;5.53;;;;;;;19.39;56.59;68930.13;5003884;28;20035;-86
2022/05/14 10:48:00;;;;;;;15.45;6.38;;;;;;;19.46;56.17;68937.59;4990626;28;20050;-86
2022/05/14 10:50:29;;;;;;;16.40;6.65;;;;;;;19.38;56.50;68929.00;5000661;28;20077;-85
2022/05/14 10:52:55;;;;;;;;;;;;;;;19.41;56.55;68927.03;5008995;28;20037;-86
2022/05/14 10:55:35;;;;;;;15.57;6.32;;;;;;;19.44;54.69;68929.88;5016131;28;19921;-86
2022/05/14 10:58:07;;;;;;;18.17;6.38;;;;;;;19.49;54.38;68935.59;5011570;28;20125;-86
2022/05/14 11:00:42;;;;;;;16.95;6.43;;;;;;;19.79;54.44;68974.72;4997521;28;20053;-85
2022/05/14 11:03:23;;;;;;;14.63;6.00;;;;;;;20.11;55.09;69005.34;4995012;28;20046;-86
2022/05/14 11:06:15;;;;;;;13.73;6.05;;;;;;;19.83;53.70;68973.91;5010431;28;20064;-85
2022/05/14 11:08:40;;;;;;;13.68;5.40;;;;;;;;;;4974115;28;20049;-85
2022/05/14 11:11:08;;;;;;;12.35;4.28;;;;;;;;;;5007070;28;20050;-87
2022/05/14 11:13:34;;;;;;;13.57;5.55;;;;;;;19.64;53.31;68952.19;5014020;28;20045;-85
2022/05/14 11:16:02;;;;;;;15.52;5.07;;;;;;;;;;5022038;28;20037;-86
2022/05/14 11:18:27;;;;;;;15.38;5.18;;;;;;;19.67;52.73;68955.63;5012906;28;20045;-87
2022/05/14 11:20:54;;;;;;;14.68;5.13;;;;;;;;;;5012929;28;20542;-85
2022/05/14 11:23:20;;;;;;;15.13;5.57;;;;;;;;;;5002216;28;20046;-86
2022/05/14 11:25:45;;;;;;;11.63;4.23;;;;;;;19.99;51.06;68988.91;4995176;28;20050;-85
2022/05/14 11:28:17;;;;;;;14.40;5.35;;;;;;;20.28;51.28;69022.09;5001361;28;20384;-86
2022/05/14 11:30:51;;;;;;;13.55;4.65;;;;;;;20.21;50.29;69016.78;5019498;28;20038;-87
2022/05/14 11:33:22;;;;;;;14.35;5.10;;;;;;;20.32;51.01;69028.22;5007593;28;20053;-87
2022/05/14 11:35:50;;;;;;;15.05;5.55;;;;;;;20.31;49.19;69027.06;5011625;28;20053;-87
2022/05/14 11:38:31;;;;;;;11.75;4.70;;;;;;;20.39;50.58;69036.78;5018449;28;20557;-85
2022/05/14 11:41:05;;;;;;;10.80;4.50;;;;;;;20.56;50.67;69061.09;5006325;28;20118;-86
2022/05/14 11:43:43;;;;;;;16.77;5.82;;;;;;;;;;4977673;28;20068;-87
2022/05/14 11:46:29;;;;;;;12.13;4.75;;;;;;;20.62;48.28;69059.81;5015890;28;20038;-86
2022/05/14 11:49:11;;;;;;;14.82;5.25;;;;;;;20.41;50.74;69038.50;5010727;28;20046;-86
2022/05/14 11:52:01;;;;;;;14.88;5.38;;;;;;;20.56;49.47;69052.41;4978050;28;20046;-86
2022/05/14 11:54:34;;;;;;;12.02;5.30;;;;;;;;;;5005371;28;20050;-85
2022/05/14 11:57:05;;;;;;;15.30;5.78;;;;;;;20.39;50.57;69036.78;5014934;28;20033;-86
2022/05/14 11:59:53;;;;;;;17.20;5.55;;;;;;;20.48;50.88;69047.09;5013970;28;20070;-86
2022/05/14 12:02:24;;;;;;;17.23;5.70;;;;;;;;;;5027389;28;20066;-87
2022/05/14 12:04:55;;;;;;;17.65;5.95;;;;;;;20.48;47.94;69044.38;5019275;28;20034;-87
2022/05/14 12:07:35;;;;;;;17.65;5.25;;;;;;;20.43;48.46;69041.38;5011709;28;20144;-87
2022/05/14 12:10:14;;;;;;;16.85;5.75;;;;;;;20.26;50.32;69017.09;5006603;28;20097;-86
2022/05/14 12:13:00;;;;;;;15.32;5.30;;;;;;;20.18;50.26;69007.38;5007772;28;20044;-86
2022/05/14 12:15:25;;;;;;;13.27;5.20;;;;;;;;;;5032495;28;20054;-88
2022/05/14 12:17:56;;;;;;;14.85;5.80;;;;;;;20.00;51.42;68992.78;5012342;28;20045;-85
2022/05/14 12:20:29;;;;;;;16.75;6.00;;;;;;;19.97;51.96;68987.22;5015886;28;20447;-86
2022/05/14 12:23:04;;;;;;;17.45;6.05;;;;;;;20.25;51.52;69021.38;5017355;28;20721;-87